Time;durP1;ratioP1;P1;durP2;ratioP2;P2;SDS_P1;SDS_P2;PMS_P1;PMS_P2;Temp;Humidity;BMP_temperature;BMP_pressure;BME280_temperature;BME280_humidity;BME280_pressure;Samples;Min_cycle;Max_cycle;Signal;HPM_P1;HPM_P2
2023/12/11 00:01:46;;;;;;;1.60;0.70;;;10.40;99.90;;;;;;5075775;28;20203;-90
2023/12/11 00:04:12;;;;;;;1.40;0.90;;;10.30;99.90;;;;;;5072869;28;20467;-90
2023/12/11 00:06:37;;;;;;;1.23;0.80;;;10.50;99.90;;;;;;5077254;28;20192;-90
2023/12/11 00:09:03;;;;;;;2.90;1.10;;;10.70;99.90;;;;;;5077761;28;20202;-91
2023/12/11 00:11:29;;;;;;;2.07;0.80;;;10.70;99.90;;;;;;5075600;28;20249;-91
2023/12/11 00:13:54;;;;;;;1.53;1.00;;;10.40;99.90;;;;;;5058269;28;20285;-91
2023/12/11 00:16:20;;;;;;;1.10;0.80;;;10.50;99.90;;;;;;5050101;28;20654;-91
2023/12/11 00:18:46;;;;;;;0.70;0.67;;;10.80;99.90;;;;;;5067874;28;20177;-91
2023/12/11 00:21:11;;;;;;;1.13;0.80;;;10.80;99.90;;;;;;5067752;28;20220;-91
2023/12/11 00:23:37;;;;;;;1.00;0.90;;;10.40;99.90;;;;;;5046738;28;20595;-91
2023/12/11 00:26:03;;;;;;;1.23;0.77;;;10.30;99.90;;;;;;5049578;28;21027;-91
2023/12/11 00:28:28;;;;;;;2.00;0.90;;;10.20;99.90;;;;;;5049812;28;20188;-91
2023/12/11 00:30:54;;;;;;;3.07;0.90;;;10.50;99.90;;;;;;5051219;28;20280;-91
2023/12/11 00:33:19;;;;;;;1.93;1.00;;;10.70;99.90;;;;;;5051486;28;20183;-91
2023/12/11 00:35:46;;;;;;;1.30;0.80;;;10.20;99.90;;;;;;5042819;28;20706;-91
2023/12/11 00:38:12;;;;;;;1.77;0.77;;;10.30;99.90;;;;;;5045318;28;20200;-91
2023/12/11 00:40:37;;;;;;;1.20;0.90;;;10.50;99.90;;;;;;5042463;28;20193;-91
2023/12/11 00:43:03;;;;;;;0.93;0.60;;;10.40;99.90;;;;;;5042096;28;20509;-91
2023/12/11 00:45:28;;;;;;;1.40;0.80;;;10.20;99.90;;;;;;5048266;28;20212;-91
2023/12/11 00:47:54;;;;;;;1.10;0.77;;;10.20;99.90;;;;;;5048324;28;20567;-91
2023/12/11 00:50:19;;;;;;;1.07;0.80;;;10.60;99.90;;;;;;5052049;28;20200;-91
2023/12/11 00:52:45;;;;;;;1.40;0.63;;;10.50;99.90;;;;;;5043286;28;20274;-91
2023/12/11 00:55:11;;;;;;;1.40;1.10;;;10.50;99.90;;;;;;5047013;28;20246;-91
2023/12/11 00:57:36;;;;;;;1.53;0.97;;;10.40;99.90;;;;;;5043593;28;20191;-91
2023/12/11 01:00:02;;;;;;;2.57;0.70;;;10.40;99.90;;;;;;5062692;28;20185;-91
2023/12/11 01:02:28;;;;;;;1.37;0.70;;;10.80;99.90;;;;;;5043858;28;20911;-91
2023/12/11 01:04:53;;;;;;;1.30;0.70;;;10.70;99.90;;;;;;5043036;28;20461;-91
2023/12/11 01:07:18;;;;;;;1.70;0.80;;;10.80;99.90;;;;;;5043242;28;20200;-91
2023/12/11 01:09:44;;;;;;;1.07;0.77;;;10.70;99.90;;;;;;5047037;28;20184;-91
2023/12/11 01:12:10;;;;;;;1.30;0.70;;;10.90;99.90;;;;;;5043371;28;20970;-91
2023/12/11 01:14:37;;;;;;;1.30;0.80;;;11.00;99.90;;;;;;5045074;28;20291;-91
2023/12/11 01:17:03;;;;;;;2.05;0.90;;;11.30;99.90;;;;;;5045692;28;20239;-91
2023/12/11 01:19:28;;;;;;;1.03;0.90;;;11.00;99.90;;;;;;5043461;28;20187;-91
2023/12/11 01:21:54;;;;;;;1.30;0.70;;;11.10;99.90;;;;;;5046386;28;20208;-91
2023/12/11 01:24:19;;;;;;;0.80;0.70;;;10.80;99.90;;;;;;5050183;28;20219;-91
2023/12/11 01:26:45;;;;;;;0.80;0.77;;;10.90;99.90;;;;;;5052347;28;20191;-91
2023/12/11 01:29:11;;;;;;;1.33;0.80;;;11.00;99.90;;;;;;5037963;28;20196;-91
2023/12/11 01:31:36;;;;;;;0.90;0.70;;;10.90;99.90;;;;;;5058912;28;20181;-91
2023/12/11 01:34:02;;;;;;;1.83;0.60;;;11.10;99.90;;;;;;5061800;28;20312;-91
2023/12/11 01:36:27;;;;;;;1.67;0.87;;;11.30;99.90;;;;;;5059487;28;20196;-90
2023/12/11 01:38:53;;;;;;;1.23;0.80;;;10.80;99.90;;;;;;5056667;28;20211;-91
2023/12/11 01:41:19;;;;;;;1.30;0.90;;;10.80;99.90;;;;;;5072481;28;20210;-91
2023/12/11 01:43:55;;;;;;;0.70;0.70;;;10.70;99.90;;;;;;5054037;28;20200;-91
2023/12/11 01:46:22;;;;;;;1.55;1.15;;;10.80;99.90;;;;;;5053315;28;20187;-91
2023/12/11 01:48:49;;;;;;;1.10;0.90;;;10.90;99.90;;;;;;5055215;28;20715;-91
2023/12/11 01:51:16;;;;;;;1.00;0.70;;;10.80;99.90;;;;;;5055410;28;20281;-91
2023/12/11 01:53:44;;;;;;;0.80;0.60;;;11.40;99.90;;;;;;5054537;28;20209;-91
2023/12/11 01:56:09;;;;;;;0.88;0.60;;;11.30;99.90;;;;;;5051878;28;20714;-91
2023/12/11 01:58:35;;;;;;;1.30;0.80;;;11.40;99.90;;;;;;5057110;28;20209;-91
2023/12/11 02:01:01;;;;;;;1.57;0.80;;;11.40;99.90;;;;;;5053826;28;20275;-91
2023/12/11 02:03:27;;;;;;;1.30;0.67;;;11.30;99.90;;;;;;5049694;28;20185;-91
2023/12/11 02:05:53;;;;;;;0.90;0.60;;;11.40;99.90;;;;;;5064330;28;20186;-89
2023/12/11 02:08:18;;;;;;;1.17;0.70;;;11.10;99.90;;;;;;5047327;28;20210;-89
2023/12/11 02:10:44;;;;;;;1.03;0.70;;;10.80;99.90;;;;;;5051922;28;20316;-90
2023/12/11 02:13:10;;;;;;;0.60;0.50;;;11.20;99.90;;;;;;5049333;28;20196;-90
2023/12/11 02:15:44;;;;;;;1.00;0.60;;;11.10;99.90;;;;;;5054200;28;20501;-89
2023/12/11 02:18:11;;;;;;;0.60;0.50;;;11.60;99.90;;;;;;5046980;28;20189;-89
2023/12/11 02:20:41;;;;;;;0.70;0.57;;;11.10;99.90;;;;;;5051648;28;20266;-89
2023/12/11 02:23:41;;;;;;;1.20;0.70;;;11.20;99.90;;;;;;5065985;28;20239;-90
2023/12/11 02:26:14;;;;;;;1.05;1.05;;;11.30;99.90;;;;;;5044499;28;20196;-90
2023/12/11 02:28:40;;;;;;;0.80;0.60;;;10.70;99.90;;;;;;5051977;28;20188;-90
2023/12/11 02:31:06;;;;;;;0.82;0.70;;;11.30;99.90;;;;;;5049773;28;20311;-90
2023/12/11 02:33:31;;;;;;;1.67;0.70;;;11.50;99.90;;;;;;5047490;28;20727;-90
2023/12/11 02:35:57;;;;;;;0.70;0.60;;;11.60;99.90;;;;;;5063842;28;20185;-90
2023/12/11 02:38:24;;;;;;;0.90;0.70;;;11.20;99.90;;;;;;5041714;28;20248;-90
2023/12/11 02:40:49;;;;;;;1.25;0.60;;;11.20;99.90;;;;;;5045231;28;20178;-90
2023/12/11 02:43:15;;;;;;;0.70;0.60;;;11.30;99.90;;;;;;5064023;28;20344;-90
2023/12/11 02:45:42;;;;;;;1.37;0.80;;;10.70;99.90;;;;;;5052052;28;20684;-90
2023/12/11 02:48:08;;;;;;;3.33;0.82;;;11.10;99.90;;;;;;5047384;28;20278;-90
2023/12/11 02:50:34;;;;;;;0.70;0.60;;;11.10;99.90;;;;;;5053592;28;20217;-90
2023/12/11 02:53:01;;;;;;;0.87;0.70;;;11.00;99.90;;;;;;5049143;28;20442;-90
2023/12/11 02:55:27;;;;;;;1.88;0.90;;;11.40;99.90;;;;;;5050610;28;20267;-90
2023/12/11 02:58:01;;;;;;;0.80;0.67;;;11.30;99.90;;;;;;5045693;28;20208;-90
2023/12/11 03:00:28;;;;;;;0.77;0.75;;;11.10;99.90;;;;;;5052159;28;20242;-90
2023/12/11 03:02:53;;;;;;;0.80;0.60;;;11.00;99.90;;;;;;5067732;28;20215;-90
2023/12/11 03:05:19;;;;;;;0.90;0.60;;;11.20;99.90;;;;;;5045810;28;20287;-90
2023/12/11 03:07:45;;;;;;;0.93;0.50;;;10.90;99.90;;;;;;5051521;28;20181;-90
2023/12/11 03:10:10;;;;;;;1.03;0.60;;;11.30;99.90;;;;;;5052422;28;21041;-90
2023/12/11 03:12:36;;;;;;;1.10;0.83;;;10.90;99.90;;;;;;5054302;28;20279;-90
2023/12/11 03:15:04;;;;;;;1.50;0.70;;;11.00;99.90;;;;;;5052486;28;20212;-90
2023/12/11 03:17:29;;;;;;;0.80;0.75;;;10.90;99.90;;;;;;5044904;28;20251;-90
2023/12/11 03:19:55;;;;;;;1.57;0.67;;;11.20;99.90;;;;;;5050503;28;20194;-90
2023/12/11 03:22:23;;;;;;;0.80;0.60;;;11.30;99.90;;;;;;5051065;28;20204;-90
2023/12/11 03:24:49;;;;;;;1.35;0.80;;;12.30;99.90;;;;;;5047997;28;20207;-90
2023/12/11 03:27:14;;;;;;;1.30;0.60;;;11.00;99.90;;;;;;5061899;28;20194;-90
2023/12/11 03:29:41;;;;;;;1.00;0.70;;;11.20;99.90;;;;;;5048948;28;20284;-90
2023/12/11 03:32:07;;;;;;;1.00;0.70;;;10.70;99.90;;;;;;5072541;28;20192;-90
2023/12/11 03:34:33;;;;;;;0.80;0.70;;;11.70;99.90;;;;;;5074288;28;20192;-90
2023/12/11 03:36:58;;;;;;;1.80;0.90;;;10.70;99.90;;;;;;5077987;28;20189;-90
2023/12/11 03:39:25;;;;;;;1.03;0.80;;;11.20;99.90;;;;;;5076862;28;20181;-90
2023/12/11 03:41:51;;;;;;;1.08;0.95;;;10.90;99.90;;;;;;5074699;28;20212;-90
2023/12/11 03:44:16;;;;;;;1.97;1.03;;;10.70;99.90;;;;;;5071803;28;20211;-90
2023/12/11 03:46:42;;;;;;;3.23;1.10;;;11.10;99.90;;;;;;5072476;28;20451;-90
2023/12/11 03:49:07;;;;;;;1.53;0.93;;;10.70;99.90;;;;;;5073789;28;20207;-90
2023/12/11 03:51:33;;;;;;;1.00;0.80;;;11.00;99.90;;;;;;5057524;28;20636;-90
2023/12/11 03:54:00;;;;;;;1.00;0.80;;;10.60;99.90;;;;;;5046266;28;20254;-90
2023/12/11 03:56:26;;;;;;;1.35;0.95;;;10.80;99.90;;;;;;5047844;28;20186;-90
2023/12/11 03:58:52;;;;;;;1.13;1.02;;;10.50;99.90;;;;;;5047902;28;20178;-90
2023/12/11 04:01:17;;;;;;;1.83;0.90;;;10.90;99.90;;;;;;5051156;28;20230;-90
2023/12/11 04:03:43;;;;;;;0.87;0.83;;;10.60;99.90;;;;;;5052330;28;20210;-90
2023/12/11 04:06:10;;;;;;;1.27;0.80;;;11.00;99.90;;;;;;5045408;28;20191;-90
2023/12/11 04:08:40;;;;;;;1.00;0.90;;;11.10;99.90;;;;;;5051834;28;20188;-90
2023/12/11 04:11:07;;;;;;;1.20;1.10;;;10.70;99.90;;;;;;5059145;28;20166;-90
2023/12/11 04:13:32;;;;;;;1.23;0.90;;;11.10;99.90;;;;;;5090456;28;20208;-89
2023/12/11 04:15:58;;;;;;;1.87;0.80;;;10.50;99.90;;;;;;5063789;28;20238;-90
2023/12/11 04:18:23;;;;;;;1.30;0.83;;;10.30;99.90;;;;;;5048602;28;20539;-90
2023/12/11 04:20:49;;;;;;;1.10;0.70;;;;;;;;;;5051374;28;20218;-90
2023/12/11 04:23:15;;;;;;;2.00;0.90;;;10.40;99.90;;;;;;5049444;28;20211;-90
2023/12/11 04:25:41;;;;;;;2.23;1.30;;;10.30;99.90;;;;;;5052127;28;20195;-90
2023/12/11 04:28:07;;;;;;;1.17;1.07;;;10.60;99.90;;;;;;5048750;28;20185;-89
2023/12/11 04:30:34;;;;;;;2.03;1.10;;;10.30;99.90;;;;;;5051432;28;20206;-89
2023/12/11 04:32:59;;;;;;;2.17;1.95;;;10.20;99.90;;;;;;5050608;28;20290;-90
2023/12/11 04:35:24;;;;;;;1.20;1.10;;;10.10;99.90;;;;;;5044203;28;20761;-90
2023/12/11 04:37:50;;;;;;;1.00;0.83;;;10.20;99.90;;;;;;5050663;28;20206;-90
2023/12/11 04:40:16;;;;;;;1.90;0.70;;;10.20;99.90;;;;;;5046194;28;20194;-90
2023/12/11 04:42:41;;;;;;;1.00;0.63;;;10.00;99.90;;;;;;5061683;28;20290;-89
2023/12/11 04:45:07;;;;;;;1.87;0.93;;;10.40;99.90;;;;;;5062908;28;20250;-90
2023/12/11 04:47:34;;;;;;;1.05;0.70;;;9.80;99.90;;;;;;5068206;28;20186;-89
2023/12/11 04:49:59;;;;;;;0.80;0.80;;;9.90;99.90;;;;;;5060312;28;20187;-90
2023/12/11 04:52:25;;;;;;;1.10;0.90;;;10.00;99.90;;;;;;5047340;28;20187;-90
2023/12/11 04:54:50;;;;;;;2.73;1.50;;;9.80;99.90;;;;;;5050188;28;20210;-89
2023/12/11 04:57:16;;;;;;;1.47;1.00;;;9.90;99.90;;;;;;5051984;28;20272;-89
2023/12/11 04:59:42;;;;;;;1.63;0.90;;;9.80;99.90;;;;;;5053393;28;20183;-90
2023/12/11 05:02:07;;;;;;;1.20;1.10;;;9.80;99.90;;;;;;5062296;28;20202;-90
2023/12/11 05:04:33;;;;;;;1.13;0.93;;;9.60;99.90;;;;;;5056721;28;20206;-90
2023/12/11 05:06:58;;;;;;;1.10;1.00;;;9.70;99.90;;;;;;5049095;28;20189;-90
2023/12/11 05:09:24;;;;;;;2.20;1.37;;;9.70;99.90;;;;;;5046163;28;20197;-90
2023/12/11 05:11:49;;;;;;;1.53;1.00;;;9.90;99.90;;;;;;5050807;28;20182;-91
2023/12/11 05:14:15;;;;;;;1.83;1.43;;;9.60;99.90;;;;;;5048400;28;20244;-90
2023/12/11 05:16:40;;;;;;;1.97;1.30;;;9.20;99.90;;;;;;5047098;28;20657;-90
2023/12/11 05:19:06;;;;;;;1.80;1.70;;;9.80;99.90;;;;;;5050989;28;20746;-91
2023/12/11 05:21:31;;;;;;;1.47;1.17;;;10.30;99.90;;;;;;5049334;28;20244;-90
2023/12/11 05:23:57;;;;;;;1.90;1.53;;;10.20;99.90;;;;;;5050395;28;20296;-91
2023/12/11 05:26:22;;;;;;;1.43;1.10;;;9.80;99.90;;;;;;5050252;28;20320;-90
2023/12/11 05:28:48;;;;;;;1.90;1.57;;;9.20;99.90;;;;;;5046635;28;20220;-91
2023/12/11 05:31:14;;;;;;;2.33;1.47;;;9.10;99.90;;;;;;5048061;28;20182;-91
2023/12/11 05:33:40;;;;;;;1.20;1.10;;;9.00;99.90;;;;;;5050966;28;20208;-91
2023/12/11 05:36:07;;;;;;;2.10;1.50;;;9.20;99.90;;;;;;5046699;28;20188;-91
2023/12/11 05:38:33;;;;;;;1.65;1.40;;;9.00;99.90;;;;;;5050273;28;20455;-91
2023/12/11 05:40:58;;;;;;;1.93;1.73;;;9.10;99.90;;;;;;5045638;28;20175;-91
2023/12/11 05:43:24;;;;;;;2.13;1.87;;;9.10;99.90;;;;;;5047561;28;20599;-91
2023/12/11 05:45:50;;;;;;;2.00;1.63;;;9.00;99.90;;;;;;5055148;28;20190;-90
2023/12/11 05:48:15;;;;;;;4.33;1.63;;;9.10;99.90;;;;;;5069526;28;20174;-89
2023/12/11 05:50:41;;;;;;;3.30;3.03;;;8.80;99.90;;;;;;5055582;28;20258;-90
2023/12/11 05:53:07;;;;;;;2.55;1.90;;;9.00;99.90;;;;;;5070720;28;20177;-91
2023/12/11 05:55:32;;;;;;;3.00;2.20;;;8.60;99.90;;;;;;5074897;28;20189;-91
2023/12/11 05:57:58;;;;;;;3.13;1.90;;;8.70;99.90;;;;;;5075271;28;20455;-90
2023/12/11 06:00:24;;;;;;;2.47;2.03;;;8.60;99.90;;;;;;5071573;28;20217;-90
2023/12/11 06:02:49;;;;;;;2.37;2.17;;;9.20;99.90;;;;;;5074618;28;20207;-90
2023/12/11 06:05:15;;;;;;;3.50;2.00;;;8.70;99.90;;;;;;5073741;28;20233;-90
2023/12/11 06:07:40;;;;;;;2.27;2.07;;;9.00;99.90;;;;;;5070017;28;20206;-90
2023/12/11 06:10:06;;;;;;;3.17;2.40;;;8.70;99.90;;;;;;5066338;28;20183;-90
2023/12/11 06:12:32;;;;;;;2.50;1.98;;;9.00;99.90;;;;;;5067202;28;20177;-90
2023/12/11 06:14:57;;;;;;;6.57;3.07;;;8.60;99.90;;;;;;5056334;28;20233;-91
2023/12/11 06:17:23;;;;;;;4.07;2.13;;;8.60;99.90;;;;;;5055801;28;20185;-91
2023/12/11 06:19:49;;;;;;;2.70;2.40;;;8.70;99.90;;;;;;5054126;28;20186;-90
2023/12/11 06:22:14;;;;;;;3.03;2.70;;;8.60;99.90;;;;;;5050910;28;20297;-91
2023/12/11 06:24:40;;;;;;;4.70;4.00;;;8.70;99.90;;;;;;5049920;28;20205;-90
2023/12/11 06:27:06;;;;;;;3.00;2.43;;;8.90;99.90;;;;;;5051428;28;20204;-90
2023/12/11 06:29:32;;;;;;;2.60;2.20;;;9.10;99.90;;;;;;5049824;28;20649;-91
2023/12/11 06:31:57;;;;;;;2.43;1.80;;;8.70;99.90;;;;;;5052356;28;20194;-93
2023/12/11 06:34:23;;;;;;;2.00;1.80;;;8.90;99.90;;;;;;5056524;28;20224;-92
2023/12/11 06:36:49;;;;;;;3.97;2.37;;;8.90;99.90;;;;;;5052055;28;20200;-92
2023/12/11 06:39:15;;;;;;;6.73;2.20;;;9.10;99.90;;;;;;5051473;28;20537;-91
2023/12/11 06:41:40;;;;;;;2.05;1.85;;;9.10;99.90;;;;;;5053536;28;20209;-91
2023/12/11 06:44:06;;;;;;;2.83;2.00;;;8.90;99.90;;;;;;5049633;28;20202;-92
2023/12/11 06:46:31;;;;;;;2.83;2.00;;;8.70;99.90;;;;;;5054134;28;20227;-92
2023/12/11 06:48:57;;;;;;;3.00;1.83;;;9.20;99.90;;;;;;5052753;28;20231;-93
2023/12/11 06:51:26;;;;;;;2.60;2.30;;;9.40;99.90;;;;;;5050709;28;20243;-92
2023/12/11 06:53:58;;;;;;;4.30;2.90;;;9.10;99.90;;;;;;5049602;28;20215;-92
2023/12/11 06:56:27;;;;;;;3.15;2.83;;;9.50;99.90;;;;;;5050495;28;20193;-90
2023/12/11 06:58:53;;;;;;;2.85;1.75;;;9.10;99.90;;;;;;5058247;28;20216;-92
2023/12/11 07:01:19;;;;;;;4.10;2.30;;;9.20;99.90;;;;;;5056071;28;20217;-92
2023/12/11 07:03:45;;;;;;;5.30;2.17;;;9.00;99.90;;;;;;5065271;28;20644;-92
2023/12/11 07:06:10;;;;;;;2.30;2.10;;;9.10;99.90;;;;;;5047157;28;20186;-91
2023/12/11 07:08:36;;;;;;;10.43;9.43;;;9.30;99.90;;;;;;5057281;28;20454;-91
2023/12/11 07:11:02;;;;;;;2.33;2.13;;;9.70;99.90;;;;;;5073825;28;20189;-91
2023/12/11 07:13:28;;;;;;;3.70;2.20;;;9.40;99.90;;;;;;5070821;28;20210;-87
2023/12/11 07:15:53;;;;;;;3.77;2.67;;;9.20;99.90;;;;;;5088074;28;20182;-85
2023/12/11 07:18:19;;;;;;;4.60;3.00;;;9.10;99.90;;;;;;5073481;28;20179;-85
2023/12/11 07:20:44;;;;;;;3.07;2.87;;;9.30;99.90;;;;;;5053736;28;20199;-87
2023/12/11 07:23:10;;;;;;;3.60;2.17;;;9.10;99.90;;;;;;5048674;28;20198;-89
2023/12/11 07:25:36;;;;;;;6.13;2.90;;;9.50;99.90;;;;;;5050975;28;20186;-89
2023/12/11 07:28:02;;;;;;;3.45;3.15;;;9.30;99.90;;;;;;5044514;28;20202;-89
2023/12/11 07:30:27;;;;;;;4.10;1.93;;;9.20;99.90;;;;;;5049449;28;20619;-90
2023/12/11 07:32:53;;;;;;;3.30;2.80;;;9.20;99.90;;;;;;5053782;28;20208;-90
2023/12/11 07:35:18;;;;;;;3.93;3.53;;;9.40;99.90;;;;;;5048022;28;20315;-90
2023/12/11 07:37:44;;;;;;;5.43;4.20;;;9.20;99.90;;;;;;5044528;28;20594;-90
2023/12/11 07:40:10;;;;;;;5.13;3.63;;;9.40;99.90;;;;;;5054126;28;20197;-90
2023/12/11 07:42:36;;;;;;;3.38;2.40;;;9.30;99.90;;;;;;5051832;28;20300;-90
2023/12/11 07:45:04;;;;;;;13.73;5.27;;;9.40;99.90;;;;;;5053092;28;20199;-90
2023/12/11 07:47:31;;;;;;;4.10;2.67;;;9.20;99.90;;;;;;5051972;28;20178;-89
2023/12/11 07:49:57;;;;;;;5.95;3.50;;;9.20;99.90;;;;;;5052591;28;20224;-90
2023/12/11 07:52:22;;;;;;;3.13;2.83;;;9.50;99.90;;;;;;5056581;28;20187;-85
2023/12/11 07:54:48;;;;;;;3.77;2.70;;;9.20;99.90;;;;;;5039163;28;20215;-88
2023/12/11 07:57:13;;;;;;;3.17;2.87;;;9.10;99.90;;;;;;5046921;28;20183;-88
2023/12/11 07:59:39;;;;;;;2.40;2.20;;;9.30;99.90;;;;;;5048461;28;20186;-88
2023/12/11 08:02:05;;;;;;;4.30;3.30;;;9.60;99.90;;;;;;5051986;28;20302;-87
2023/12/11 08:04:30;;;;;;;3.10;2.30;;;10.00;99.90;;;;;;5050476;28;20687;-88
2023/12/11 08:06:56;;;;;;;4.47;2.40;;;9.90;99.90;;;;;;5055853;28;20187;-88
2023/12/11 08:09:21;;;;;;;4.90;2.53;;;9.80;99.90;;;;;;5065828;28;20336;-88
2023/12/11 08:11:49;;;;;;;4.00;1.90;;;10.70;99.90;;;;;;5056791;28;20187;-87
2023/12/11 08:14:15;;;;;;;3.72;2.30;;;9.80;99.90;;;;;;5049918;28;20680;-87
2023/12/11 08:16:41;;;;;;;1.50;1.27;;;9.90;99.90;;;;;;5052399;28;20183;-86
2023/12/11 08:19:06;;;;;;;6.97;1.60;;;10.10;99.90;;;;;;5056367;28;20187;-86
2023/12/11 08:21:32;;;;;;;5.83;1.93;;;10.30;99.90;;;;;;5067159;28;20206;-85
2023/12/11 08:23:58;;;;;;;4.38;1.30;;;10.10;99.90;;;;;;5052621;28;20203;-84
2023/12/11 08:26:24;;;;;;;1.27;1.17;;;10.20;99.90;;;;;;5055831;28;20206;-85
2023/12/11 08:28:50;;;;;;;2.73;1.30;;;11.60;99.90;;;;;;5055135;28;20748;-83
2023/12/11 08:31:16;;;;;;;1.67;1.58;;;10.40;99.90;;;;;;5052995;28;20197;-83
2023/12/11 08:33:44;;;;;;;1.95;1.08;;;10.90;99.90;;;;;;5055444;28;20211;-84
2023/12/11 08:36:10;;;;;;;3.40;3.10;;;10.90;99.90;;;;;;5053409;28;20176;-84
2023/12/11 08:38:35;;;;;;;2.10;1.90;;;11.10;99.90;;;;;;5054356;28;20212;-84
2023/12/11 08:41:01;;;;;;;4.20;2.73;;;11.00;99.90;;;;;;5056964;28;20189;-83
2023/12/11 08:43:26;;;;;;;3.80;2.10;;;11.50;99.90;;;;;;5055568;28;20222;-84
2023/12/11 08:45:52;;;;;;;3.70;1.40;;;11.40;99.90;;;;;;5064862;28;20171;-84
2023/12/11 08:48:17;;;;;;;4.23;2.57;;;12.00;99.90;;;;;;5070888;28;20188;-86
2023/12/11 08:50:43;;;;;;;2.60;1.87;;;12.30;99.90;;;;;;5072313;28;20178;-87
2023/12/11 08:53:09;;;;;;;2.90;1.47;;;11.80;99.90;;;;;;5066362;28;20582;-85
2023/12/11 08:55:34;;;;;;;1.93;1.50;;;11.50;99.90;;;;;;5054070;28;20182;-85
2023/12/11 08:58:00;;;;;;;2.27;1.57;;;11.90;99.90;;;;;;5057820;28;20182;-84
2023/12/11 09:00:26;;;;;;;2.63;1.53;;;11.60;99.90;;;;;;5054896;28;20679;-84
2023/12/11 09:02:51;;;;;;;2.80;1.40;;;12.50;99.90;;;;;;5057807;28;20213;-84
2023/12/11 09:05:17;;;;;;;4.20;1.43;;;12.40;99.90;;;;;;5054910;28;20678;-86
2023/12/11 09:07:43;;;;;;;1.73;1.23;;;12.20;99.90;;;;;;5053483;28;20178;-86
2023/12/11 09:10:09;;;;;;;1.53;1.30;;;12.20;99.90;;;;;;5059904;28;20429;-85
2023/12/11 09:12:38;;;;;;;2.45;1.55;;;12.80;99.90;;;;;;5045674;28;20433;-84
2023/12/11 09:15:05;;;;;;;6.82;4.72;;;12.70;99.90;;;;;;5048182;28;20611;-85
2023/12/11 09:17:30;;;;;;;1.90;1.10;;;12.40;99.90;;;;;;5064701;28;20672;-85
2023/12/11 09:19:56;;;;;;;1.50;1.10;;;13.10;99.90;;;;;;5047634;28;20181;-86
2023/12/11 09:22:22;;;;;;;1.33;1.00;;;12.60;99.90;;;;;;5043550;28;20209;-85
2023/12/11 09:24:47;;;;;;;1.00;0.90;;;12.30;99.90;;;;;;5056483;28;20202;-87
2023/12/11 09:27:13;;;;;;;2.20;1.33;;;12.70;99.90;;;;;;5074926;28;20532;-87
2023/12/11 09:29:38;;;;;;;1.00;0.80;;;12.60;99.90;;;;;;5069041;28;20169;-85
2023/12/11 09:32:04;;;;;;;1.23;1.13;;;12.30;99.90;;;;;;5064340;28;20561;-84
2023/12/11 09:34:30;;;;;;;2.45;0.80;;;12.30;99.90;;;;;;5063629;28;20205;-85
2023/12/11 09:36:57;;;;;;;1.63;0.80;;;12.80;99.90;;;;;;5050215;28;20200;-89
2023/12/11 09:39:22;;;;;;;1.17;0.80;;;11.80;99.90;;;;;;5064422;28;20189;-89
2023/12/11 09:41:49;;;;;;;3.10;1.00;;;12.40;99.90;;;;;;5050112;28;20204;-88
2023/12/11 09:44:16;;;;;;;2.47;1.00;;;13.00;99.90;;;;;;5050692;28;20209;-90
2023/12/11 09:46:51;;;;;;;2.20;1.42;;;12.90;99.90;;;;;;5046439;28;20185;-90
2023/12/11 09:49:17;;;;;;;2.25;1.15;;;13.10;99.90;;;;;;5051234;28;20185;-90
2023/12/11 09:51:43;;;;;;;1.17;1.07;;;12.60;99.90;;;;;;5050364;28;20234;-90
2023/12/11 09:54:09;;;;;;;3.77;1.87;;;13.80;99.90;;;;;;5034170;28;20213;-88
2023/12/11 09:56:35;;;;;;;1.77;1.50;;;13.00;99.90;;;;;;5050317;28;20824;-87
2023/12/11 09:59:03;;;;;;;9.07;4.53;;;12.60;99.90;;;;;;5052950;28;20443;-88
2023/12/11 10:01:29;;;;;;;4.65;1.73;;;12.90;99.90;;;;;;5047838;28;20218;-87
2023/12/11 10:03:55;;;;;;;8.77;1.67;;;13.30;99.90;;;;;;5054413;28;20193;-88
2023/12/11 10:06:22;;;;;;;2.80;1.60;;;13.20;99.90;;;;;;5050510;28;20188;-88
2023/12/11 10:08:52;;;;;;;1.10;0.80;;;13.70;99.90;;;;;;5052833;28;20182;-87
2023/12/11 10:11:19;;;;;;;2.70;1.55;;;13.40;99.90;;;;;;5052811;28;20239;-87
2023/12/11 10:13:45;;;;;;;3.17;1.00;;;13.60;99.90;;;;;;5051749;28;20208;-88
2023/12/11 10:16:30;;;;;;;2.77;0.90;;;14.20;99.90;;;;;;5051601;28;20574;-88
2023/12/11 10:18:56;;;;;;;1.60;0.80;;;14.50;99.90;;;;;;5054901;28;20515;-87
2023/12/11 10:21:26;;;;;;;1.90;0.82;;;15.30;99.90;;;;;;5035701;28;20181;-87
2023/12/11 10:24:02;;;;;;;1.73;0.93;;;15.10;99.90;;;;;;5053135;28;20217;-87
2023/12/11 10:26:28;;;;;;;2.05;1.30;;;15.60;99.80;;;;;;5051011;28;20188;-87
2023/12/11 10:28:53;;;;;;;2.30;1.23;;;15.50;99.40;;;;;;5052244;28;20196;-89
2023/12/11 10:31:19;;;;;;;2.00;1.33;;;15.70;99.20;;;;;;5050329;28;20277;-89
2023/12/11 10:33:49;;;;;;;2.80;1.30;;;15.60;98.90;;;;;;5051811;28;20201;-87
2023/12/11 10:36:15;;;;;;;1.40;0.98;;;15.40;99.10;;;;;;5045787;28;20193;-89
2023/12/11 10:38:42;;;;;;;2.75;1.00;;;15.70;98.40;;;;;;5050198;28;20194;-89
2023/12/11 10:41:08;;;;;;;2.00;1.30;;;15.60;98.70;;;;;;5050353;28;20225;-89
2023/12/11 10:43:41;;;;;;;2.88;1.30;;;15.40;98.90;;;;;;5058846;28;20231;-88
2023/12/11 10:46:08;;;;;;;1.80;1.00;;;15.70;99.50;;;;;;5049177;28;20307;-87
2023/12/11 10:48:36;;;;;;;1.83;1.10;;;15.60;99.10;;;;;;5046215;28;20190;-87
2023/12/11 10:51:05;;;;;;;1.17;0.90;;;15.50;99.70;;;;;;5051056;28;20209;-86
2023/12/11 10:53:33;;;;;;;1.58;0.93;;;15.10;99.80;;;;;;5051991;28;20233;-87
2023/12/11 10:56:00;;;;;;;2.55;1.30;;;15.00;99.90;;;;;;5049218;28;20281;-88
2023/12/11 10:58:27;;;;;;;1.13;0.90;;;15.00;99.90;;;;;;5049889;28;20181;-87
2023/12/11 11:00:54;;;;;;;1.80;1.17;;;14.70;99.90;;;;;;5049914;28;20555;-87
2023/12/11 11:03:21;;;;;;;2.15;0.90;;;14.30;99.90;;;;;;5049604;28;20699;-87
2023/12/11 11:05:48;;;;;;;4.22;1.00;;;14.30;99.90;;;;;;5049221;28;20185;-87
2023/12/11 11:08:35;;;;;;;1.50;1.17;;;14.40;99.90;;;;;;5050545;28;20603;-87
2023/12/11 11:11:24;;;;;;;6.20;2.70;;;14.30;99.90;;;;;;5050775;28;20184;-87
2023/12/11 11:14:17;;;;;;;2.45;1.55;;;14.20;99.90;;;;;;5048384;28;20201;-88
2023/12/11 11:16:57;;;;;;;4.93;2.13;;;14.30;99.90;;;;;;5065842;28;20612;-89
2023/12/11 11:19:27;;;;;;;1.80;1.30;;;14.00;99.90;;;;;;5065434;28;20220;-89
2023/12/11 11:22:06;;;;;;;3.80;2.25;;;14.40;99.90;;;;;;5048901;28;20228;-89
2023/12/11 11:24:37;;;;;;;2.17;1.70;;;14.20;99.90;;;;;;5049424;28;20348;-88
2023/12/11 11:27:04;;;;;;;2.80;1.45;;;14.80;99.90;;;;;;5071869;28;20204;-88
2023/12/11 11:29:43;;;;;;;2.65;1.77;;;14.50;99.90;;;;;;5084357;28;20197;-88
2023/12/11 11:32:10;;;;;;;1.90;1.52;;;14.40;99.90;;;;;;5052171;28;20193;-87
2023/12/11 11:34:39;;;;;;;1.70;1.60;;;14.50;99.90;;;;;;5050928;28;20210;-87
2023/12/11 11:37:17;;;;;;;3.75;1.50;;;14.20;99.90;;;;;;5062039;28;20213;-88
2023/12/11 11:40:03;;;;;;;2.72;1.35;;;14.80;99.90;;;;;;5069089;28;20231;-88
2023/12/11 11:42:31;;;;;;;2.72;1.48;;;14.20;99.90;;;;;;5066810;28;20244;-88
2023/12/11 11:44:58;;;;;;;3.05;1.58;;;14.50;99.90;;;;;;5059982;28;20201;-88
2023/12/11 11:47:28;;;;;;;2.95;1.58;;;14.90;99.90;;;;;;5049785;28;20595;-88
2023/12/11 11:50:02;;;;;;;1.95;1.20;;;14.80;99.90;;;;;;5050778;28;20445;-88
2023/12/11 11:52:28;;;;;;;4.43;1.30;;;15.20;99.90;;;;;;5045301;28;20258;-88
2023/12/11 11:55:10;;;;;;;2.77;1.40;;;15.10;99.90;;;;;;5050064;28;20213;-88
2023/12/11 11:57:36;;;;;;;2.53;1.40;;;14.60;98.80;;;;;;5047843;28;20185;-88
2023/12/11 12:00:04;;;;;;;2.83;1.57;;;14.10;98.30;;;;;;5051400;28;20552;-87
2023/12/11 12:02:29;;;;;;;4.50;1.70;;;14.00;98.20;;;;;;5047981;28;20209;-88
2023/12/11 12:04:55;;;;;;;3.17;1.60;;;14.40;98.90;;;;;;5053161;28;20193;-87
2023/12/11 12:07:22;;;;;;;3.90;1.90;;;14.10;98.60;;;;;;5053488;28;20188;-89
2023/12/11 12:09:52;;;;;;;3.20;2.10;;;13.90;98.70;;;;;;5051811;28;20182;-87
2023/12/11 12:12:17;;;;;;;4.40;1.38;;;14.90;99.50;;;;;;5054968;28;20185;-87
2023/12/11 12:14:43;;;;;;;4.63;1.27;;;14.10;98.70;;;;;;5064699;28;20236;-87
2023/12/11 12:17:10;;;;;;;3.97;1.90;;;14.00;99.00;;;;;;5063770;28;20197;-87
2023/12/11 12:19:36;;;;;;;5.47;2.20;;;13.60;99.20;;;;;;5053232;28;20209;-88
2023/12/11 12:22:02;;;;;;;2.60;1.60;;;13.70;99.30;;;;;;5050223;28;20225;-87
2023/12/11 12:24:29;;;;;;;4.32;1.73;;;13.80;98.10;;;;;;5051206;28;20464;-87
2023/12/11 12:27:01;;;;;;;2.15;1.00;;;14.50;98.10;;;;;;5048969;28;20634;-87
2023/12/11 12:29:27;;;;;;;4.47;1.73;;;14.20;96.80;;;;;;5049127;28;20219;-88
2023/12/11 12:31:53;;;;;;;7.95;1.90;;;14.20;96.90;;;;;;5044981;28;20188;-88
2023/12/11 12:34:19;;;;;;;3.20;1.33;;;14.40;96.70;;;;;;5047062;28;20213;-88
2023/12/11 12:36:45;;;;;;;5.55;1.75;;;14.70;96.30;;;;;;5051087;28;20192;-88
2023/12/11 12:39:18;;;;;;;3.90;1.75;;;14.20;95.80;;;;;;5029989;28;20189;-88
2023/12/11 12:41:44;;;;;;;4.45;1.40;;;14.00;95.70;;;;;;5034723;28;20603;-88
2023/12/11 12:44:09;;;;;;;9.10;2.43;;;16.00;96.90;;;;;;5049929;28;20201;-88
2023/12/11 12:46:42;;;;;;;4.07;1.23;;;14.00;95.80;;;;;;5049601;28;20185;-88
2023/12/11 12:49:09;;;;;;;4.13;1.38;;;14.40;96.00;;;;;;5050174;28;20185;-88